Itanhaem, Brazil
Current Conditions -  °F | °C
As of 8:00 PM on Saturday 22 Nov 2014 (Local Time) from SBST Reporting Station
Broken Clouds Broken Clouds  
Wind Chill: 77°   Ceiling: 3000
Heat Index: 78°   Visibility: 6mi
Dew Point: 75°   Wind: 0mph
Humidity: 94%   Direction: NA
Pressure: 29.8"   Gusts: NA
Location:  24.18°S, 46.8°W
Report Text: SBST 222200Z 00000KT 9999 BKN030 25/24 Q1009
Loading
Personal Weather Stations






























Interactive Weather Map New forecast layout! Learn more

10-Day Weather Forecast

Advertisements
Track Severe Weather on mobile